Time;durP1;ratioP1;P1;durP2;ratioP2;P2;SDS_P1;SDS_P2;PMS_P1;PMS_P2;Temp;Humidity;BMP_temperature;BMP_pressure;BME280_temperature;BME280_humidity;BME280_pressure;Samples;Min_cycle;Max_cycle;Signal;HPM_P1;HPM_P2
2022/10/01 00:00:34;;;;;;;18.80;6.38;;;;;;;16.53;68.75;95641.66;5089003;28;20046;-75
2022/10/01 00:02:59;;;;;;;18.27;6.18;;;;;;;16.59;68.41;95641.25;5098081;28;20031;-75
2022/10/01 00:05:25;;;;;;;16.63;6.10;;;;;;;16.36;68.26;95604.00;5098063;28;20039;-76
2022/10/01 00:07:50;;;;;;;17.88;7.43;;;;;;;16.66;68.47;95664.19;5088979;28;20031;-76
2022/10/01 00:10:16;;;;;;;18.88;6.68;;;;;;;16.60;68.41;95660.78;5097974;28;20036;-76
2022/10/01 00:12:47;;;;;;;13.07;6.55;;;;;;;15.80;68.23;95533.66;5099426;27;20034;-75
2022/10/01 00:15:14;;;;;;;12.55;6.82;;;;;;;16.48;68.17;95631.81;5093109;28;20579;-76
2022/10/01 00:17:40;;;;;;;14.90;6.95;;;;;;;16.58;68.04;95645.00;5097254;28;20051;-75
2022/10/01 00:20:06;;;;;;;25.50;7.55;;;;;;;16.46;68.10;95655.44;5097407;28;20463;-76
2022/10/01 00:22:34;;;;;;;17.75;6.20;;;;;;;16.34;69.48;95671.19;5091542;28;20164;-75
2022/10/01 00:24:59;;;;;;;17.20;6.82;;;;;;;16.08;69.99;95612.03;5078988;28;20115;-75
2022/10/01 00:27:26;;;;;;;19.25;7.28;;;;;;;16.46;69.06;95654.66;5092911;27;20040;-75
2022/10/01 00:29:52;;;;;;;21.92;6.60;;;;;;;16.43;68.50;95639.19;5101855;27;20848;-75
2022/10/01 00:32:18;;;;;;;14.68;6.75;;;;;;;16.13;68.38;95592.41;5072748;28;20073;-75
2022/10/01 00:34:44;;;;;;;21.75;7.65;;;;;;;16.05;68.33;95575.19;5097508;28;20032;-75
2022/10/01 00:37:09;;;;;;;14.50;6.93;;;;;;;16.21;68.76;95627.31;5078527;28;20039;-75
2022/10/01 00:39:35;;;;;;;20.08;7.38;;;;;;;16.45;68.67;95651.19;5091691;28;20485;-75
2022/10/01 00:42:03;;;;;;;17.65;7.55;;;;;;;16.28;68.60;95634.13;5097773;28;20039;-75
2022/10/01 00:44:36;;;;;;;14.85;7.32;;;;;;;16.44;68.73;95651.47;5097087;28;20035;-75
2022/10/01 00:47:27;;;;;;;19.95;6.88;;;;;;;16.43;68.86;95644.53;5076479;28;20428;-75
2022/10/01 00:50:25;;;;;;;28.27;9.13;;;;;;;16.21;69.13;95632.66;5077530;28;20040;-76
2022/10/01 00:52:59;;;;;;;16.88;6.70;;;;;;;16.40;69.05;95658.53;5097387;28;20044;-76
2022/10/01 00:55:29;;;;;;;18.42;6.63;;;;;;;15.92;69.02;95575.97;5087481;28;20135;-76
2022/10/01 00:57:55;;;;;;;22.80;8.00;;;;;;;16.08;69.04;95596.00;5069301;28;20040;-76
2022/10/01 01:00:21;;;;;;;17.52;6.70;;;;;;;16.40;69.13;95653.94;5106872;27;20543;-76
2022/10/01 01:02:46;;;;;;;21.67;7.50;;;;;;;16.17;69.48;95641.59;5076782;28;20039;-76
2022/10/01 01:05:13;;;;;;;17.25;7.22;;;;;;;15.80;70.88;95631.81;5093413;28;20032;-76
2022/10/01 01:07:43;;;;;;;19.55;7.63;;;;;;;16.13;70.04;95649.41;5096698;28;20050;-76
2022/10/01 01:10:10;;;;;;;14.55;6.45;;;;;;;16.18;69.84;95651.97;5078569;28;20501;-75
2022/10/01 01:12:57;;;;;;;18.00;7.22;;;;;;;16.12;70.26;95657.72;5093319;28;20146;-76
2022/10/01 01:15:29;;;;;;;18.33;6.88;;;;;;;15.54;70.40;95553.16;5078774;28;20035;-76
2022/10/01 01:18:04;;;;;;;16.85;7.60;;;;;;;16.19;70.02;95639.38;5075222;28;20062;-76
2022/10/01 01:20:45;;;;;;;19.15;7.45;;;;;;;16.18;70.20;95635.13;5074583;28;20832;-75
2022/10/01 01:23:14;;;;;;;13.98;7.25;;;;;;;16.01;70.81;95646.44;5096970;28;20446;-75
2022/10/01 01:25:48;;;;;;;15.75;6.97;;;;;;;15.86;70.75;95603.91;5096231;28;20513;-75
2022/10/01 01:28:19;;;;;;;11.65;6.85;;;;;;;16.19;70.17;95634.03;5096726;28;20461;-76
2022/10/01 01:30:48;;;;;;;;;;;;;;;16.05;70.74;95638.59;5080790;28;20625;-76
2022/10/01 01:33:17;;;;;;;13.15;7.50;;;;;;;15.63;70.59;95572.78;5081871;28;19959;-76
2022/10/01 01:35:48;;;;;;;20.38;7.40;;;;;;;15.78;71.10;95604.59;5108818;28;20028;-76
2022/10/01 01:38:18;;;;;;;22.90;7.78;;;;;;;15.74;70.96;95585.66;5096699;28;20128;-76
2022/10/01 01:40:46;;;;;;;13.80;7.85;;;;;;;15.73;71.21;95647.44;5096434;28;20035;-75
2022/10/01 01:43:20;;;;;;;15.00;8.60;;;;;;;15.36;71.90;95587.63;5094189;28;20409;-76
2022/10/01 01:45:51;;;;;;;27.98;9.55;;;;;;;15.68;71.34;95650.22;5108373;28;20101;-76
2022/10/01 01:48:16;;;;;;;20.40;8.05;;;;;;;15.57;72.47;95646.91;5100702;28;20031;-76
2022/10/01 01:50:54;;;;;;;20.20;9.70;;;;;;;15.15;72.26;95581.06;5096013;28;20042;-76
2022/10/01 01:53:20;;;;;;;28.02;9.40;;;;;;;15.44;72.44;95644.97;5094899;28;20662;-76
2022/10/01 01:55:48;;;;;;;16.08;8.13;;;;;;;15.17;72.30;95586.13;5091148;28;20078;-76
2022/10/01 01:58:15;;;;;;;21.40;8.98;;;;;;;15.31;72.50;95614.47;5098262;27;20621;-76
2022/10/01 02:00:41;;;;;;;20.45;8.82;;;;;;;15.49;72.14;95639.53;5095735;28;20476;-76
2022/10/01 02:03:08;;;;;;;14.18;8.40;;;;;;;15.12;72.08;95559.47;5100022;28;20032;-76
2022/10/01 02:05:42;;;;;;;15.10;7.28;;;;;;;15.29;71.73;95608.59;5097031;28;20031;-76
2022/10/01 02:08:07;;;;;;;14.45;8.32;;;;;;;15.70;71.61;95653.41;5099465;28;20095;-76
2022/10/01 02:10:53;;;;;;;16.70;7.95;;;;;;;15.51;72.00;95663.31;5099744;28;20048;-76
2022/10/01 02:13:37;;;;;;;15.68;7.05;;;;;;;15.21;71.31;95585.22;5078059;28;20047;-76
2022/10/01 02:16:41;;;;;;;12.85;7.00;;;;;;;15.72;71.26;95672.59;5099382;28;20180;-75
2022/10/01 02:19:24;;;;;;;18.88;7.35;;;;;;;15.59;71.77;95679.50;5085817;27;20108;-76
2022/10/01 02:22:07;;;;;;;18.67;7.70;;;;;;;15.64;71.66;95662.59;5095323;28;20731;-75
2022/10/01 02:24:44;;;;;;;19.42;6.78;;;;;;;15.42;71.61;95621.22;5099282;27;20035;-76
2022/10/01 02:27:26;;;;;;;14.50;7.22;;;;;;;15.31;72.37;95653.75;5098804;28;20050;-76
2022/10/01 02:29:54;;;;;;;;;;;;;;;15.54;72.64;95676.94;5080816;28;20036;-76
2022/10/01 02:32:20;;;;;;;15.90;7.75;;;;;;;15.43;72.63;95696.84;5098754;28;20349;-76
2022/10/01 02:34:48;;;;;;;14.60;7.22;;;;;;;15.50;72.63;95675.09;5080650;28;20151;-77
2022/10/01 02:37:18;;;;;;;17.98;7.97;;;;;;;15.35;72.44;95641.38;5098783;28;20122;-76
2022/10/01 02:39:46;;;;;;;14.80;7.43;;;;;;;14.87;74.46;95640.78;5098825;28;20039;-76
2022/10/01 02:42:15;;;;;;;13.85;7.68;;;;;;;15.16;74.28;95676.16;5080091;28;20109;-77
2022/10/01 02:44:44;;;;;;;18.33;8.23;;;;;;;14.46;75.47;95652.00;5099310;28;20036;-76
2022/10/01 02:47:16;;;;;;;16.17;8.55;;;;;;;14.81;75.38;95684.63;5096070;28;20054;-76
2022/10/01 02:49:42;;;;;;;17.83;8.50;;;;;;;14.75;74.50;95643.88;5079895;28;20112;-76
2022/10/01 02:52:23;;;;;;;15.43;9.13;;;;;;;15.10;74.57;95698.69;5079714;28;20554;-77
2022/10/01 02:54:54;;;;;;;16.50;7.82;;;;;;;15.07;74.85;95720.63;5079707;28;20632;-77
2022/10/01 02:57:23;;;;;;;15.30;8.02;;;;;;;14.80;74.43;95643.03;5098667;28;20410;-77
2022/10/01 02:59:55;;;;;;;16.88;8.70;;;;;;;15.21;73.91;95670.72;5079348;28;20930;-77
2022/10/01 03:02:21;;;;;;;17.25;8.27;;;;;;;15.50;73.32;95683.91;5098645;28;20477;-77
2022/10/01 03:04:47;;;;;;;23.30;8.55;;;;;;;15.42;72.77;95658.63;5094060;28;20044;-76
2022/10/01 03:07:14;;;;;;;15.63;7.75;;;;;;;15.52;72.76;95654.19;5088091;28;20103;-76
2022/10/01 03:09:40;;;;;;;17.65;8.63;;;;;;;15.72;72.50;95692.13;5091889;28;20055;-76
2022/10/01 03:12:06;;;;;;;15.90;8.15;;;;;;;15.59;72.08;95650.09;5070794;28;20139;-76
2022/10/01 03:14:31;;;;;;;18.02;8.77;;;;;;;15.62;71.94;95622.00;5088099;28;20808;-76
2022/10/01 03:16:57;;;;;;;16.38;7.75;;;;;;;16.03;71.28;95697.72;5094483;28;20556;-76
2022/10/01 03:19:22;;;;;;;16.45;7.97;;;;;;;15.80;71.09;95661.22;5066447;28;20509;-76
2022/10/01 03:21:48;;;;;;;13.50;7.65;;;;;;;15.74;71.64;95652.50;5072848;28;20134;-76
2022/10/01 03:24:13;;;;;;;17.63;7.45;;;;;;;15.74;71.70;95691.81;5098107;28;20027;-77
2022/10/01 03:26:40;;;;;;;17.70;7.97;;;;;;;15.77;72.42;95680.56;5079694;28;20042;-78
2022/10/01 03:29:05;;;;;;;19.73;8.05;;;;;;;15.87;72.23;95695.66;5098609;28;20031;-78
2022/10/01 03:31:31;;;;;;;16.50;7.28;;;;;;;15.87;72.66;95722.38;5095605;28;20498;-76
2022/10/01 03:33:59;;;;;;;17.95;7.78;;;;;;;15.45;72.94;95644.69;5096828;28;20039;-77
2022/10/01 03:36:27;;;;;;;20.60;7.70;;;;;;;15.28;72.64;95663.13;5094413;28;20088;-78
2022/10/01 03:38:54;;;;;;;15.93;7.32;;;;;;;15.74;72.46;95713.22;5077502;27;20034;-77
2022/10/01 03:41:19;;;;;;;19.00;7.07;;;;;;;15.81;72.31;95709.09;5110738;27;20565;-77
2022/10/01 03:43:45;;;;;;;18.42;6.75;;;;;;;15.70;71.88;95680.94;5074594;28;20036;-77
2022/10/01 03:46:10;;;;;;;15.32;7.07;;;;;;;15.88;72.31;95706.03;5103280;27;20040;-77
2022/10/01 03:48:37;;;;;;;21.50;7.40;;;;;;;15.82;72.25;95704.53;5092955;28;20552;-77
2022/10/01 03:51:04;;;;;;;16.35;7.80;;;;;;;15.63;71.85;95685.06;5092568;28;20580;-76
2022/10/01 03:53:30;;;;;;;19.90;7.80;;;;;;;15.77;72.51;95691.25;5097193;28;20049;-76
2022/10/01 03:55:57;;;;;;;16.70;8.30;;;;;;;15.47;72.20;95652.41;5078301;28;20097;-76
2022/10/01 03:58:23;;;;;;;16.27;7.80;;;;;;;15.80;72.51;95675.41;5092956;28;20046;-76
2022/10/01 04:00:49;;;;;;;19.42;7.70;;;;;;;15.81;72.10;95668.97;5083218;28;20040;-77
2022/10/01 04:03:15;;;;;;;12.18;7.22;;;;;;;15.76;72.64;95690.47;5093704;28;20059;-77
2022/10/01 04:05:42;;;;;;;20.45;8.98;;;;;;;15.65;73.06;95680.22;5078998;28;20607;-77
2022/10/01 04:08:08;;;;;;;30.98;9.38;;;;;;;15.52;73.13;95660.34;5097058;28;20032;-77
2022/10/01 04:10:34;;;;;;;18.80;8.40;;;;;;;15.10;73.18;95567.78;5077867;28;20032;-77
2022/10/01 04:13:00;;;;;;;24.00;8.43;;;;;;;15.62;73.35;95656.75;5079417;28;20131;-77
2022/10/01 04:15:25;;;;;;;23.35;9.07;;;;;;;15.75;72.53;95667.47;5079177;28;20043;-77
2022/10/01 04:17:51;;;;;;;16.77;7.55;;;;;;;15.80;72.70;95663.91;5102802;27;20905;-77
2022/10/01 04:20:17;;;;;;;16.38;8.30;;;;;;;15.56;72.51;95632.00;5091310;28;20024;-77
2022/10/01 04:22:43;;;;;;;20.13;8.95;;;;;;;15.23;73.00;95633.03;5096526;28;20027;-77
2022/10/01 04:25:10;;;;;;;23.52;8.32;;;;;;;15.35;73.75;95705.50;5096815;28;20422;-77
2022/10/01 04:27:36;;;;;;;20.50;8.60;;;;;;;15.15;73.70;95661.19;5096731;28;20047;-77
2022/10/01 04:30:03;;;;;;;13.77;8.38;;;;;;;15.28;73.97;95670.34;5078356;28;20047;-77
2022/10/01 04:32:28;;;;;;;16.90;8.52;;;;;;;14.42;75.38;95594.16;5077902;28;20046;-77
2022/10/01 04:34:54;;;;;;;23.60;8.57;;;;;;;15.04;75.07;95695.28;5063214;28;20035;-77
2022/10/01 04:37:20;;;;;;;16.38;9.02;;;;;;;14.42;75.44;95554.91;5074544;28;20509;-77
2022/10/01 04:39:46;;;;;;;20.42;8.63;;;;;;;14.72;75.90;95611.63;5061106;28;20043;-77
2022/10/01 04:42:14;;;;;;;19.60;8.65;;;;;;;14.67;75.40;95628.50;5077154;28;20042;-77
2022/10/01 04:44:40;;;;;;;20.75;9.23;;;;;;;14.64;75.97;95619.22;5096208;28;20569;-77
2022/10/01 04:47:07;;;;;;;21.67;8.85;;;;;;;15.04;75.76;95684.59;5079165;28;20110;-75
2022/10/01 04:49:33;;;;;;;20.20;9.05;;;;;;;14.81;76.61;95696.13;5081641;28;20031;-76
2022/10/01 04:52:01;;;;;;;19.67;8.15;;;;;;;14.87;76.01;95662.16;5096614;28;20042;-76
2022/10/01 04:54:27;;;;;;;18.40;8.52;;;;;;;14.96;75.58;95661.19;5093998;28;20107;-76
2022/10/01 04:56:52;;;;;;;17.73;9.00;;;;;;;15.18;74.89;95673.97;5096315;28;20523;-76
2022/10/01 04:59:18;;;;;;;21.33;9.07;;;;;;;15.49;74.11;95706.34;5096660;28;20577;-76
2022/10/01 05:01:44;;;;;;;14.65;8.27;;;;;;;15.58;73.75;95720.69;5088791;28;20036;-76
2022/10/01 05:04:10;;;;;;;20.70;7.93;;;;;;;15.64;73.38;95711.50;5088241;28;20123;-76
2022/10/01 05:06:35;;;;;;;20.05;8.23;;;;;;;15.26;72.66;95630.56;5096698;28;20043;-76
2022/10/01 05:09:01;;;;;;;16.48;7.43;;;;;;;15.62;72.42;95668.25;5096937;28;20035;-76
2022/10/01 05:11:27;;;;;;;19.85;9.07;;;;;;;15.62;72.04;95670.91;5096462;28;20042;-76
2022/10/01 05:13:53;;;;;;;21.40;8.10;;;;;;;16.00;71.77;95718.94;5077793;28;20188;-76
2022/10/01 05:16:18;;;;;;;22.10;8.65;;;;;;;15.72;72.00;95694.00;5077367;28;20053;-76
2022/10/01 05:18:44;;;;;;;19.60;8.13;;;;;;;15.68;72.53;95725.88;5096471;28;20060;-76
2022/10/01 05:21:10;;;;;;;18.50;7.82;;;;;;;15.99;71.57;95728.84;5096156;28;20028;-76
2022/10/01 05:23:36;;;;;;;22.08;8.25;;;;;;;15.94;71.41;95717.44;5080764;28;20028;-76
2022/10/01 05:26:06;;;;;;;19.70;8.07;;;;;;;15.96;71.64;95713.38;5063510;28;20055;-76
2022/10/01 05:28:32;;;;;;;24.33;7.93;;;;;;;15.81;71.15;95682.34;5063953;28;20374;-76
2022/10/01 05:31:02;;;;;;;20.65;8.75;;;;;;;15.84;71.95;95723.75;5095933;28;20057;-76
2022/10/01 05:33:29;;;;;;;30.40;9.23;;;;;;;15.85;71.73;95733.38;5095065;27;20030;-76
2022/10/01 05:35:57;;;;;;;26.33;8.73;;;;;;;15.50;71.31;95643.81;5070207;28;20050;-76
2022/10/01 05:38:23;;;;;;;20.23;8.65;;;;;;;15.96;70.86;95723.28;5102908;27;20814;-76
2022/10/01 05:40:49;;;;;;;20.95;8.23;;;;;;;15.97;70.38;95730.22;5072233;28;20028;-76
2022/10/01 05:43:14;;;;;;;21.60;8.80;;;;;;;15.87;69.74;95691.06;5092068;28;20038;-78
2022/10/01 05:45:41;;;;;;;26.23;8.77;;;;;;;16.18;69.54;95734.91;5088924;28;20024;-77
2022/10/01 05:48:08;;;;;;;28.52;8.73;;;;;;;16.17;69.35;95713.84;5092873;28;20095;-77
2022/10/01 05:50:39;;;;;;;15.90;8.48;;;;;;;16.17;68.98;95669.09;5081838;28;20035;-77
2022/10/01 05:53:05;;;;;;;20.20;8.65;;;;;;;16.48;68.42;95677.34;5081204;28;20066;-77
2022/10/01 05:55:33;;;;;;;21.73;10.20;;;;;;;16.42;68.77;95672.38;5082296;28;20120;-77
2022/10/01 05:58:12;;;;;;;33.88;8.60;;;;;;;16.73;68.48;95707.41;5079905;28;20034;-77
2022/10/01 06:00:39;;;;;;;23.73;9.75;;;;;;;16.52;67.68;95673.00;5099859;28;20930;-78
2022/10/01 06:03:05;;;;;;;27.27;9.75;;;;;;;16.82;67.28;95703.75;5081599;28;20032;-78
2022/10/01 06:05:33;;;;;;;28.13;10.35;;;;;;;16.88;67.28;95713.25;5096486;28;20110;-77
2022/10/01 06:07:59;;;;;;;31.38;12.07;;;;;;;16.51;67.45;95676.75;5064281;28;20036;-77
2022/10/01 06:10:26;;;;;;;19.75;10.45;;;;;;;16.95;66.93;95735.06;5070706;28;20042;-78
2022/10/01 06:12:59;;;;;;;23.77;12.15;;;;;;;16.68;67.05;95699.50;5070267;28;20040;-78
2022/10/01 06:15:24;;;;;;;24.13;10.40;;;;;;;16.34;67.75;95705.19;5071556;28;20035;-75
2022/10/01 06:17:50;;;;;;;27.20;10.32;;;;;;;15.85;68.63;95679.88;5089436;27;20059;-78
2022/10/01 06:20:18;;;;;;;20.80;9.60;;;;;;;16.32;68.33;95769.75;5077048;28;20066;-77
2022/10/01 06:22:51;;;;;;;25.17;10.65;;;;;;;16.09;68.68;95758.13;5080966;27;20119;-78
2022/10/01 06:25:18;;;;;;;28.00;10.63;;;;;;;16.07;68.02;95700.63;5084756;28;20040;-77
2022/10/01 06:27:44;;;;;;;24.20;10.20;;;;;;;16.43;67.89;95749.72;5098945;28;20023;-77
2022/10/01 06:30:10;;;;;;;31.95;10.65;;;;;;;16.36;67.71;95749.31;5072003;28;20429;-77
2022/10/01 06:32:35;;;;;;;24.80;10.45;;;;;;;16.15;67.45;95726.69;5096357;28;20040;-78
2022/10/01 06:35:01;;;;;;;20.92;10.35;;;;;;;16.56;67.51;95775.72;5080659;28;20075;-77
2022/10/01 06:37:27;;;;;;;28.20;11.23;;;;;;;16.55;67.67;95747.34;5071690;28;20138;-77
2022/10/01 06:39:52;;;;;;;27.20;11.38;;;;;;;16.66;67.58;95761.38;5071389;28;20046;-77
2022/10/01 06:42:18;;;;;;;19.25;10.65;;;;;;;16.10;68.29;95706.16;5080917;28;20053;-77
2022/10/01 06:44:43;;;;;;;35.92;10.07;;;;;;;16.65;67.74;95762.47;5091315;28;20093;-77
2022/10/01 06:47:09;;;;;;;30.55;11.55;;;;;;;16.39;67.36;95689.06;5079941;28;20505;-77
2022/10/01 06:49:34;;;;;;;21.60;10.32;;;;;;;16.81;67.02;95733.50;5098915;28;20039;-77
2022/10/01 06:54:44;;;;;;;24.33;10.25;;;;;;;16.65;66.51;95675.97;5100405;27;20050;-77
2022/10/01 06:57:09;;;;;;;44.53;11.70;;;;;;;16.90;66.97;95751.25;5063041;28;20031;-77
2022/10/01 06:59:38;;;;;;;25.33;10.65;;;;;;;16.66;67.41;95766.72;5079850;28;20036;-79
2022/10/01 07:02:04;;;;;;;26.45;9.95;;;;;;;16.40;66.96;95693.34;5085184;28;20040;-79
2022/10/01 07:04:29;;;;;;;23.40;11.15;;;;;;;16.34;67.06;95699.84;5067737;28;20038;-78
2022/10/01 07:06:57;;;;;;;29.05;10.23;;;;;;;16.76;66.79;95709.50;5072022;28;21018;-77
2022/10/01 07:09:24;;;;;;;20.88;10.98;;;;;;;16.35;67.72;95696.09;5061477;28;20035;-77
2022/10/01 07:11:49;;;;;;;28.38;11.35;;;;;;;16.39;67.73;95716.63;5090007;28;20031;-77
2022/10/01 07:14:15;;;;;;;26.92;9.90;;;;;;;16.36;67.20;95719.09;5087407;28;20074;-77
2022/10/01 07:16:40;;;;;;;21.45;9.85;;;;;;;16.52;66.72;95742.59;5061016;28;20825;-77
2022/10/01 07:19:05;;;;;;;17.73;9.70;;;;;;;16.80;66.60;95791.63;5074853;28;20052;-78
2022/10/01 07:21:31;;;;;;;22.08;8.32;;;;;;;17.03;66.25;95789.03;5079976;28;20063;-77
2022/10/01 07:23:56;;;;;;;16.88;9.25;;;;;;;16.44;65.65;95705.00;5098245;28;20031;-78
2022/10/01 07:26:22;;;;;;;22.88;8.82;;;;;;;17.22;63.81;95781.69;5097580;28;20036;-77
2022/10/01 07:28:49;;;;;;;12.48;6.63;;;;;;;17.43;63.26;95760.59;5079078;28;20031;-77
2022/10/01 07:31:14;;;;;;;10.93;7.15;;;;;;;17.42;64.29;95767.84;5082190;28;20028;-77
2022/10/01 07:33:40;;;;;;;18.85;8.30;;;;;;;17.24;63.74;95694.50;5081675;28;20039;-77
2022/10/01 07:36:08;;;;;;;16.48;7.38;;;;;;;17.74;63.36;95746.22;5093625;28;20044;-77
2022/10/01 07:38:33;;;;;;;23.35;9.02;;;;;;;17.94;62.91;95734.19;5078608;28;20039;-77
2022/10/01 07:41:01;;;;;;;18.70;8.07;;;;;;;18.18;61.81;95738.44;5067210;28;20109;-77
2022/10/01 07:43:28;;;;;;;24.25;8.60;;;;;;;18.40;61.48;95739.16;5071574;28;20513;-77
2022/10/01 07:45:56;;;;;;;20.05;7.95;;;;;;;18.52;61.16;95739.41;5069505;28;20460;-77
2022/10/01 07:48:23;;;;;;;17.40;7.78;;;;;;;18.33;61.08;95684.34;5097772;28;20031;-77
2022/10/01 07:50:48;;;;;;;20.58;8.10;;;;;;;18.88;61.01;95738.44;5091871;28;20502;-77
2022/10/01 07:53:14;;;;;;;15.63;7.88;;;;;;;18.94;60.70;95734.50;5073486;28;20041;-77
2022/10/01 07:55:39;;;;;;;16.48;7.82;;;;;;;19.07;60.19;95735.50;5078771;28;20035;-77
2022/10/01 07:58:05;;;;;;;18.48;7.60;;;;;;;18.94;60.37;95693.38;5097209;28;20040;-77
2022/10/01 08:00:32;;;;;;;16.33;8.32;;;;;;;19.20;60.18;95751.50;5078197;28;20020;-77
2022/10/01 08:02:58;;;;;;;12.90;8.05;;;;;;;19.10;59.97;95724.88;5097135;28;20525;-77
2022/10/01 08:05:27;;;;;;;17.38;8.07;;;;;;;19.26;59.74;95730.59;5075624;28;20148;-76
2022/10/01 08:07:57;;;;;;;21.20;8.38;;;;;;;19.34;60.08;95718.28;5079910;28;20027;-77
2022/10/01 08:10:23;;;;;;;19.25;7.45;;;;;;;19.41;59.39;95699.75;5064974;28;20061;-77
2022/10/01 08:12:48;;;;;;;23.10;7.55;;;;;;;19.48;59.15;95690.16;5097098;28;20183;-77
2022/10/01 08:15:16;;;;;;;16.80;6.35;;;;;;;19.50;58.46;95665.63;5073627;28;20087;-77
2022/10/01 08:17:42;;;;;;;13.45;6.38;;;;;;;19.82;58.12;95697.41;5085775;28;20078;-79
2022/10/01 08:20:10;;;;;;;19.02;6.93;;;;;;;19.86;57.67;95695.66;5073259;28;20042;-77
2022/10/01 08:22:36;;;;;;;12.93;7.30;;;;;;;19.82;58.13;95697.41;5095621;28;20042;-77
2022/10/01 08:25:03;;;;;;;13.73;6.07;;;;;;;20.00;57.96;95700.84;5086085;28;20762;-77
2022/10/01 08:27:29;;;;;;;15.18;6.15;;;;;;;20.01;57.91;95673.59;5079562;28;20036;-76
2022/10/01 08:29:54;;;;;;;10.75;6.22;;;;;;;19.94;57.89;95694.84;5079326;28;20043;-79
2022/10/01 08:32:22;;;;;;;16.27;7.00;;;;;;;20.00;57.79;95698.16;5041689;28;20450;-77
2022/10/01 08:34:48;;;;;;;12.35;7.60;;;;;;;20.09;57.78;95693.53;5059923;28;20446;-76
2022/10/01 08:37:15;;;;;;;16.50;8.70;;;;;;;19.63;56.21;95643.94;5095868;28;20055;-78
2022/10/01 08:39:40;;;;;;;17.58;7.50;;;;;;;19.49;55.91;95591.41;5096743;28;20051;-77
2022/10/01 08:42:24;;;;;;;19.45;7.47;;;;;;;19.93;57.22;95684.38;5086737;28;20421;-76
2022/10/01 08:44:51;;;;;;;17.00;7.57;;;;;;;19.98;57.83;95692.31;5071538;28;20040;-77
2022/10/01 08:47:34;;;;;;;24.63;8.35;;;;;;;20.07;56.62;95681.50;5065230;28;20530;-77
2022/10/01 08:50:10;;;;;;;10.60;7.35;;;;;;;19.79;56.64;95624.56;5085206;28;20504;-77
2022/10/01 08:52:49;;;;;;;18.15;6.97;;;;;;;19.92;57.31;95632.44;5057894;28;20052;-77
2022/10/01 08:55:25;;;;;;;15.00;7.38;;;;;;;19.72;59.38;95638.53;5076161;28;20040;-79
2022/10/01 08:58:03;;;;;;;17.30;7.65;;;;;;;19.58;58.51;95590.28;5095145;28;20119;-77
2022/10/01 09:00:31;;;;;;;21.77;7.60;;;;;;;19.99;57.81;95669.63;5079823;28;20031;-77
2022/10/01 09:03:02;;;;;;;15.82;7.32;;;;;;;19.53;58.47;95651.56;5083045;28;20049;-77
2022/10/01 09:05:43;;;;;;;19.13;7.45;;;;;;;19.68;58.26;95726.41;5110144;27;20088;-77
2022/10/01 09:08:21;;;;;;;22.73;8.48;;;;;;;19.50;58.95;95697.91;5086920;28;20040;-77
2022/10/01 09:10:52;;;;;;;15.93;8.23;;;;;;;19.27;58.33;95668.44;5091632;28;20044;-77
2022/10/01 09:13:39;;;;;;;26.77;8.80;;;;;;;19.47;60.05;95739.66;5080490;28;20135;-77
2022/10/01 09:16:34;;;;;;;18.83;8.30;;;;;;;19.19;59.51;95685.38;5066758;28;20040;-77
2022/10/01 09:19:09;;;;;;;21.55;10.60;;;;;;;19.22;59.98;95726.97;5081344;28;20521;-78
2022/10/01 09:21:58;;;;;;;23.52;9.57;;;;;;;19.07;60.80;95783.88;5069075;28;20407;-78
2022/10/01 09:24:44;;;;;;;25.73;11.40;;;;;;;18.86;61.54;95760.25;5089324;28;20035;-78
2022/10/01 09:27:22;;;;;;;22.45;9.90;;;;;;;18.52;63.08;95743.97;5096917;28;20120;-77
2022/10/01 09:29:51;;;;;;;17.38;9.65;;;;;;;18.96;62.10;95794.13;5077135;28;20035;-77
2022/10/01 09:32:22;;;;;;;18.15;10.65;;;;;;;18.75;64.51;95758.16;5077220;28;20146;-77
2022/10/01 09:34:48;;;;;;;22.77;11.43;;;;;;;19.01;64.37;95782.41;5094890;28;20107;-77
2022/10/01 09:37:40;;;;;;;20.70;10.77;;;;;;;18.60;65.52;95743.25;5095333;28;20150;-77
2022/10/01 09:40:32;;;;;;;19.70;10.77;;;;;;;18.88;66.45;95798.34;5075356;28;20042;-77
2022/10/01 09:42:58;;;;;;;25.65;10.85;;;;;;;18.84;66.93;95796.63;5076136;28;20066;-77
2022/10/01 09:45:24;;;;;;;22.60;9.43;;;;;;;18.57;65.25;95770.72;5074909;28;20811;-77
2022/10/01 09:47:53;;;;;;;24.60;10.10;;;;;;;18.34;65.92;95756.53;5076376;28;20163;-77
2022/10/01 09:50:40;;;;;;;21.85;9.88;;;;;;;18.32;65.96;95752.56;5076263;28;20116;-77
2022/10/01 09:53:15;;;;;;;17.98;9.80;;;;;;;18.65;65.87;95753.06;5086235;28;20043;-77
2022/10/01 09:55:44;;;;;;;17.98;8.63;;;;;;;18.58;66.46;95697.09;5087550;28;20039;-77
2022/10/01 09:58:19;;;;;;;20.90;9.95;;;;;;;19.05;66.56;95751.94;5067674;28;20042;-77
2022/10/01 10:00:47;;;;;;;17.80;10.32;;;;;;;18.92;66.59;95712.50;5075492;28;20039;-77
2022/10/01 10:03:30;;;;;;;30.95;11.30;;;;;;;18.89;68.03;95738.13;5057827;28;20032;-77
2022/10/01 10:06:00;;;;;;;21.42;10.43;;;;;;;18.81;67.23;95760.41;5058138;28;20039;-77
2022/10/01 10:08:39;;;;;;;21.88;10.20;;;;;;;18.88;67.39;95749.97;5057478;28;20552;-77
2022/10/01 10:11:09;;;;;;;13.43;8.95;;;;;;;18.83;66.96;95744.75;5084159;28;20032;-77
2022/10/01 10:13:47;;;;;;;26.57;9.10;;;;;;;18.99;65.96;95738.94;5094714;28;20024;-77
2022/10/01 10:16:23;;;;;;;19.88;10.27;;;;;;;19.06;65.69;95750.03;5076667;28;20040;-77
2022/10/01 10:18:52;;;;;;;23.23;12.93;;;;;;;18.75;66.70;95659.53;5075794;28;20565;-77
2022/10/01 10:21:25;;;;;;;29.77;14.93;;;;;;;18.66;69.06;95701.72;5068644;28;20498;-77
2022/10/01 10:23:50;;;;;;;21.75;11.18;;;;;;;18.85;69.67;95742.53;5070379;28;20107;-77
2022/10/01 10:26:42;;;;;;;19.85;11.63;;;;;;;18.89;70.75;95727.38;5065088;28;20038;-78
2022/10/01 10:29:24;;;;;;;17.88;10.70;;;;;;;18.81;71.26;95732.72;5079285;28;20044;-77
2022/10/01 10:31:50;;;;;;;19.52;10.30;;;;;;;18.63;72.17;95723.03;5077377;28;20119;-77
2022/10/01 10:34:30;;;;;;;21.85;10.05;;;;;;;18.57;71.77;95713.53;5074767;28;20050;-77
2022/10/01 10:36:58;;;;;;;18.90;10.95;;;;;;;18.88;72.26;95743.81;5066851;28;20467;-77
2022/10/01 10:39:30;;;;;;;24.58;11.63;;;;;;;18.77;73.35;95729.06;5072648;28;20118;-78
2022/10/01 10:41:58;;;;;;;24.13;11.23;;;;;;;18.81;72.18;95754.22;5070543;28;20040;-77
2022/10/01 10:44:29;;;;;;;23.58;10.27;;;;;;;18.80;71.79;95725.78;5076549;28;20032;-77
2022/10/01 10:47:00;;;;;;;31.60;11.27;;;;;;;18.81;73.68;95725.47;5065732;28;20582;-77
2022/10/01 10:49:30;;;;;;;24.90;11.30;;;;;;;18.63;73.71;95731.88;5061542;28;20858;-77
2022/10/01 10:51:57;;;;;;;27.52;11.23;;;;;;;18.31;74.41;95681.94;5077688;28;20071;-77
2022/10/01 10:54:32;;;;;;;22.98;12.48;;;;;;;18.69;74.03;95713.75;5076652;28;20062;-76
2022/10/01 10:57:01;;;;;;;20.50;10.40;;;;;;;18.62;74.10;95697.25;5073495;28;20043;-77
2022/10/01 10:59:32;;;;;;;21.38;12.77;;;;;;;18.80;74.11;95702.38;5060347;28;20156;-77
2022/10/01 11:02:04;;;;;;;17.75;10.90;;;;;;;18.61;75.06;95707.25;5064578;28;20044;-80
2022/10/01 11:04:43;;;;;;;20.55;11.80;;;;;;;18.76;75.05;95693.38;5078050;28;20039;-76
2022/10/01 11:07:10;;;;;;;32.22;13.73;;;;;;;18.35;76.57;95636.50;5076042;28;20085;-76
2022/10/01 11:10:17;;;;;;;23.35;12.63;;;;;;;18.65;76.18;95697.44;5076456;28;20036;-77
2022/10/01 11:12:55;;;;;;;24.55;13.00;;;;;;;18.70;75.29;95688.44;5027311;28;20095;-77
2022/10/01 11:15:50;;;;;;;24.00;13.27;;;;;;;18.75;77.11;95677.56;5060209;28;20039;-77
2022/10/01 11:19:00;;;;;;;38.28;13.55;;;;;;;18.74;75.89;95668.72;5057147;28;20057;-77
2022/10/01 11:21:34;;;;;;;18.73;10.05;;;;;;;18.79;74.87;95660.50;5042480;28;20066;-77
2022/10/01 11:24:35;;;;;;;22.30;10.30;;;;;;;18.93;75.38;95632.69;5074410;28;20071;-77
2022/10/01 11:27:03;;;;;;;21.07;10.63;;;;;;;19.00;75.24;95604.22;5065899;28;20035;-77
2022/10/01 11:29:36;;;;;;;16.95;9.57;;;;;;;19.11;74.98;95613.56;5076938;28;20142;-77
2022/10/01 11:32:21;;;;;;;23.67;10.68;;;;;;;18.85;75.17;95578.59;5078056;28;20877;-76
2022/10/01 11:35:02;;;;;;;22.00;9.40;;;;;;;19.11;74.44;95624.31;5064430;28;20828;-76
2022/10/01 11:37:57;;;;;;;22.02;9.50;;;;;;;19.18;75.03;95602.34;5058333;28;20425;-76
2022/10/01 11:40:27;;;;;;;23.65;11.13;;;;;;;19.26;75.53;95596.16;5064162;28;20032;-77